General Aviation Weather

Text Reports

Enter one or more of the following location identifiers separated by a space:

Zip Code, Four-Character ICAO or Three-Character IATA airport codes.

METAR - Aviation Routine Weather Report
OKBK - Kuwait,
Updated at 1:00 PM GMT on November 28, 2014 (4:00 PM AST):
METAR OKBK 281300Z 03006KT 9999 FEW040 BKN080 23/07 Q1018 NOSIG
TAF - Terminal Area Forecast
OKBK - Kuwait,
Updated at 1:00 PM GMT on November 28, 2014 (4:00 PM AST):
TAF OKBK 281045Z 2812/2918 36008KT 8000 NSC
      BECMG 2900/2902 34010G20KT SKC=
Decoded:
ID: OKBK   Kuwait Intl (MI, KW
REPORT TIME: 28 10:45
VALID TIME: 28 November AT 12:00Z to 29 November AT 18:00Z.
INITIAL WX
   WINDS: 360 AT 8
   VISIBILITY: 5.0 MILES
   WEATHER: NSC
WX BECOMING FROM 00Z TO 02Z
   WINDS: 340 AT 10 GUST 20
   CLOUDS: CLEAR
   COMMENTS: = 

CORRECTION
INITIAL WX
   WEATHER: GMFO
   COMMENTS: 281100Z 2812/2918 21026G36KT 9999 SCT023 SCT033 
TEMPORARY WX 
   VISIBILITY: 28.0 MILES
   COMMENTS: 14/2818 24019KT SHRA SCT020 FEW040CB BKN100 
WX BECOMING FROM 08Z TO 10Z
   WINDS: 240 AT 23 GUST 35
TEMPORARY WX FROM 02Z TO 07Z
   WEATHER: TSRA
   COMMENTS: = 

PIREP - Pilot Weather Report
OKBK - Kuwait,
Updated at 1:00 PM GMT on November 28, 2014 (4:00 PM AST):
No PIREP is currently available for this location.
AIRMET - Airmens Meteorological Information
OKBK - Kuwait,
Updated at 1:00 PM GMT on November 28, 2014 (4:00 PM AST):
No AIRMET is currently available for this location.
SIGMET - Significant Meteorological Information
OKBK - Kuwait,
Updated at 1:00 PM GMT on November 28, 2014 (4:00 PM AST):
No SIGMET is currently available for this location.
NOTAM - Notice to Airmen
OKBK - Kuwait,
Updated at 1:00 PM GMT on November 28, 2014 (4:00 PM AST):
No NOTAM is currently available for this location.
Forecast Area
OKBK - Kuwait,
Updated at 1:00 PM GMT on November 28, 2014 (4:00 PM AST):
No NOTAM is currently available for this location.
Aviation Weather Maps